sensor_id;sensor_type;location;lat;lon;timestamp;pressure;altitude;pressure_sealevel;temperature;humidity
63019;BME280;49105;46.046;10.760;2023-06-14T00:02:09;95283.31;;;16.18;83.85
63019;BME280;49105;46.046;10.760;2023-06-14T00:04:35;95274.03;;;16.15;83.70
63019;BME280;49105;46.046;10.760;2023-06-14T00:07:01;95270.25;;;16.16;83.83
63019;BME280;49105;46.046;10.760;2023-06-14T00:09:26;95260.06;;;16.18;83.85
63019;BME280;49105;46.046;10.760;2023-06-14T00:11:52;95263.03;;;16.17;83.85
63019;BME280;49105;46.046;10.760;2023-06-14T00:14:17;95261.50;;;16.07;83.50
63019;BME280;49105;46.046;10.760;2023-06-14T00:16:43;95256.16;;;15.98;83.65
63019;BME280;49105;46.046;10.760;2023-06-14T00:19:09;95261.34;;;15.95;84.33
63019;BME280;49105;46.046;10.760;2023-06-14T00:21:35;95248.47;;;15.97;84.11
63019;BME280;49105;46.046;10.760;2023-06-14T00:24:02;95252.38;;;15.99;84.00
63019;BME280;49105;46.046;10.760;2023-06-14T00:26:27;95258.06;;;15.98;83.97
63019;BME280;49105;46.046;10.760;2023-06-14T00:28:54;95256.63;;;16.00;84.04
63019;BME280;49105;46.046;10.760;2023-06-14T00:31:19;95246.59;;;15.97;84.14
63019;BME280;49105;46.046;10.760;2023-06-14T00:33:45;95249.56;;;15.96;84.23
63019;BME280;49105;46.046;10.760;2023-06-14T00:36:10;95245.81;;;15.97;84.44
63019;BME280;49105;46.046;10.760;2023-06-14T00:38:36;95242.97;;;16.02;84.25
63019;BME280;49105;46.046;10.760;2023-06-14T00:41:01;95236.34;;;16.08;84.17
63019;BME280;49105;46.046;10.760;2023-06-14T00:43:27;95232.59;;;16.09;83.93
63019;BME280;49105;46.046;10.760;2023-06-14T00:45:52;95235.56;;;16.07;84.15
63019;BME280;49105;46.046;10.760;2023-06-14T00:48:18;95230.38;;;16.11;84.14
63019;BME280;49105;46.046;10.760;2023-06-14T00:50:45;95234.94;;;16.10;84.25
63019;BME280;49105;46.046;10.760;2023-06-14T00:53:15;95230.69;;;16.18;84.00
63019;BME280;49105;46.046;10.760;2023-06-14T00:55:41;95220.19;;;16.13;83.71
63019;BME280;49105;46.046;10.760;2023-06-14T00:58:07;95231.94;;;16.12;83.96
63019;BME280;49105;46.046;10.760;2023-06-14T01:00:33;95229.44;;;16.07;84.29
63019;BME280;49105;46.046;10.760;2023-06-14T01:02:59;95225.84;;;16.03;84.21
63019;BME280;49105;46.046;10.760;2023-06-14T01:05:24;95225.53;;;15.96;84.37
63019;BME280;49105;46.046;10.760;2023-06-14T01:08:10;95226.31;;;15.96;84.59
63019;BME280;49105;46.046;10.760;2023-06-14T01:13:20;95226.03;;;15.89;84.29
63019;BME280;49105;46.046;10.760;2023-06-14T01:15:47;95225.41;;;15.83;84.36
63019;BME280;49105;46.046;10.760;2023-06-14T01:18:13;95224.00;;;15.77;84.70
63019;BME280;49105;46.046;10.760;2023-06-14T01:20:46;95230.56;;;15.80;84.64
63019;BME280;49105;46.046;10.760;2023-06-14T01:23:16;95227.91;;;15.80;84.58
63019;BME280;49105;46.046;10.760;2023-06-14T01:25:42;95221.34;;;15.77;84.54
63019;BME280;49105;46.046;10.760;2023-06-14T01:28:10;95220.41;;;15.73;84.59
63019;BME280;49105;46.046;10.760;2023-06-14T01:30:38;95216.47;;;15.71;84.49
63019;BME280;49105;46.046;10.760;2023-06-14T01:33:04;95213.63;;;15.67;84.65
63019;BME280;49105;46.046;10.760;2023-06-14T01:35:31;95216.44;;;15.62;84.42
63019;BME280;49105;46.046;10.760;2023-06-14T01:37:56;95198.72;;;15.57;84.78
63019;BME280;49105;46.046;10.760;2023-06-14T01:40:23;95210.66;;;15.60;84.43
63019;BME280;49105;46.046;10.760;2023-06-14T01:42:50;95205.44;;;15.55;84.57
63019;BME280;49105;46.046;10.760;2023-06-14T01:45:16;95206.56;;;15.54;84.90
63019;BME280;49105;46.046;10.760;2023-06-14T01:47:43;95207.03;;;15.56;84.71
63019;BME280;49105;46.046;10.760;2023-06-14T01:50:09;95205.00;;;15.53;84.61
63019;BME280;49105;46.046;10.760;2023-06-14T01:52:36;95199.34;;;15.46;84.64
63019;BME280;49105;46.046;10.760;2023-06-14T01:55:02;95198.06;;;15.34;84.40
63019;BME280;49105;46.046;10.760;2023-06-14T01:57:27;95197.91;;;15.22;84.49
63019;BME280;49105;46.046;10.760;2023-06-14T01:59:53;95209.50;;;15.18;84.75
63019;BME280;49105;46.046;10.760;2023-06-14T02:02:18;95201.81;;;15.16;84.48
63019;BME280;49105;46.046;10.760;2023-06-14T02:04:44;95204.16;;;15.18;84.55
63019;BME280;49105;46.046;10.760;2023-06-14T02:07:11;95207.00;;;15.21;84.61
63019;BME280;49105;46.046;10.760;2023-06-14T02:09:37;95199.66;;;15.27;84.66
63019;BME280;49105;46.046;10.760;2023-06-14T02:12:02;95202.94;;;15.32;84.86
63019;BME280;49105;46.046;10.760;2023-06-14T02:14:28;95206.56;;;15.36;84.47
63019;BME280;49105;46.046;10.760;2023-06-14T02:16:53;95204.50;;;15.42;84.60
63019;BME280;49105;46.046;10.760;2023-06-14T02:19:19;95202.78;;;15.46;84.95
63019;BME280;49105;46.046;10.760;2023-06-14T02:21:46;95198.09;;;15.52;84.37
63019;BME280;49105;46.046;10.760;2023-06-14T02:24:11;95200.28;;;15.50;84.24
63019;BME280;49105;46.046;10.760;2023-06-14T02:26:37;95195.09;;;15.36;83.92
63019;BME280;49105;46.046;10.760;2023-06-14T02:29:04;95195.09;;;15.27;83.70
63019;BME280;49105;46.046;10.760;2023-06-14T02:31:31;95193.66;;;15.21;83.97
63019;BME280;49105;46.046;10.760;2023-06-14T02:33:56;95202.78;;;15.20;83.97
63019;BME280;49105;46.046;10.760;2023-06-14T02:36:22;95194.00;;;15.11;83.83
63019;BME280;49105;46.046;10.760;2023-06-14T02:38:47;95198.38;;;15.07;84.42
63019;BME280;49105;46.046;10.760;2023-06-14T02:41:13;95199.94;;;15.08;84.27
63019;BME280;49105;46.046;10.760;2023-06-14T02:43:38;95201.66;;;15.12;84.38
63019;BME280;49105;46.046;10.760;2023-06-14T02:46:04;95195.38;;;15.08;84.17
63019;BME280;49105;46.046;10.760;2023-06-14T02:48:30;95191.94;;;15.08;84.20
63019;BME280;49105;46.046;10.760;2023-06-14T02:50:55;95196.78;;;15.06;84.51
63019;BME280;49105;46.046;10.760;2023-06-14T02:53:22;95194.78;;;15.11;84.30
63019;BME280;49105;46.046;10.760;2023-06-14T02:55:47;95188.94;;;15.09;83.86
63019;BME280;49105;46.046;10.760;2023-06-14T02:58:13;95192.88;;;15.03;83.95
63019;BME280;49105;46.046;10.760;2023-06-14T03:00:39;95193.34;;;15.05;84.41
63019;BME280;49105;46.046;10.760;2023-06-14T03:03:06;95195.22;;;15.05;84.44
63019;BME280;49105;46.046;10.760;2023-06-14T03:05:41;95192.25;;;15.06;84.34
63019;BME280;49105;46.046;10.760;2023-06-14T03:08:07;95192.88;;;15.03;84.38
63019;BME280;49105;46.046;10.760;2023-06-14T03:10:32;95197.09;;;14.96;84.06
63019;BME280;49105;46.046;10.760;2023-06-14T03:12:57;95199.91;;;14.91;84.29
63019;BME280;49105;46.046;10.760;2023-06-14T03:15:23;95198.34;;;14.89;84.55
63019;BME280;49105;46.046;10.760;2023-06-14T03:17:49;95198.81;;;14.92;84.37
63019;BME280;49105;46.046;10.760;2023-06-14T03:20:16;95188.16;;;14.92;84.79
63019;BME280;49105;46.046;10.760;2023-06-14T03:22:41;95192.38;;;14.93;84.62
63019;BME280;49105;46.046;10.760;2023-06-14T03:25:07;95185.16;;;14.93;84.81
63019;BME280;49105;46.046;10.760;2023-06-14T03:27:34;95178.94;;;14.98;84.73
63019;BME280;49105;46.046;10.760;2023-06-14T03:30:00;95186.91;;;14.98;84.62
63019;BME280;49105;46.046;10.760;2023-06-14T03:32:26;95183.16;;;14.99;84.66
63019;BME280;49105;46.046;10.760;2023-06-14T03:34:51;95175.78;;;14.96;84.25
63019;BME280;49105;46.046;10.760;2023-06-14T03:37:17;95186.88;;;14.89;84.57
63019;BME280;49105;46.046;10.760;2023-06-14T03:39:43;95180.31;;;14.86;84.79
63019;BME280;49105;46.046;10.760;2023-06-14T03:42:13;95192.69;;;14.91;85.10
63019;BME280;49105;46.046;10.760;2023-06-14T03:44:38;95191.28;;;14.94;85.04
63019;BME280;49105;46.046;10.760;2023-06-14T03:47:04;95191.28;;;14.94;84.84
63019;BME280;49105;46.046;10.760;2023-06-14T03:49:30;95180.94;;;14.92;84.79
63019;BME280;49105;46.046;10.760;2023-06-14T03:51:55;95180.16;;;14.92;84.85
63019;BME280;49105;46.046;10.760;2023-06-14T03:54:21;95185.47;;;14.92;84.61
63019;BME280;49105;46.046;10.760;2023-06-14T03:56:47;95184.53;;;14.87;84.57
63019;BME280;49105;46.046;10.760;2023-06-14T03:59:12;95192.88;;;14.95;85.07
63019;BME280;49105;46.046;10.760;2023-06-14T04:01:38;95188.63;;;14.94;84.67
63019;BME280;49105;46.046;10.760;2023-06-14T04:04:10;95190.19;;;14.95;84.72
63019;BME280;49105;46.046;10.760;2023-06-14T04:06:35;95188.78;;;14.97;84.59
63019;BME280;49105;46.046;10.760;2023-06-14T04:09:00;95193.31;;;14.97;84.49
63019;BME280;49105;46.046;10.760;2023-06-14T04:11:27;95187.22;;;14.96;84.29
63019;BME280;49105;46.046;10.760;2023-06-14T04:13:53;95196.31;;;14.95;84.29
63019;BME280;49105;46.046;10.760;2023-06-14T04:16:19;95198.66;;;14.97;84.50
63019;BME280;49105;46.046;10.760;2023-06-14T04:18:44;95200.84;;;14.95;84.19
63019;BME280;49105;46.046;10.760;2023-06-14T04:21:12;95203.81;;;14.93;84.64
63019;BME280;49105;46.046;10.760;2023-06-14T04:23:37;95200.25;;;14.98;85.03
63019;BME280;49105;46.046;10.760;2023-06-14T04:26:03;95195.72;;;15.07;84.68
63019;BME280;49105;46.046;10.760;2023-06-14T04:28:29;95200.72;;;15.17;84.87
63019;BME280;49105;46.046;10.760;2023-06-14T04:30:55;95201.50;;;15.26;84.72
63019;BME280;49105;46.046;10.760;2023-06-14T04:33:21;95198.06;;;15.34;84.40
63019;BME280;49105;46.046;10.760;2023-06-14T04:35:48;95200.72;;;15.34;84.34
63019;BME280;49105;46.046;10.760;2023-06-14T04:38:13;95200.75;;;15.43;84.64
63019;BME280;49105;46.046;10.760;2023-06-14T04:40:41;95200.44;;;15.53;84.46
63019;BME280;49105;46.046;10.760;2023-06-14T04:43:11;95204.22;;;15.52;84.26
63019;BME280;49105;46.046;10.760;2023-06-14T04:45:42;95203.88;;;15.54;84.29
63019;BME280;49105;46.046;10.760;2023-06-14T04:48:10;95208.91;;;15.64;84.46
63019;BME280;49105;46.046;10.760;2023-06-14T04:50:35;95208.91;;;15.99;84.69
63019;BME280;49105;46.046;10.760;2023-06-14T04:53:01;95214.47;;;16.32;84.38
63019;BME280;49105;46.046;10.760;2023-06-14T04:55:26;95215.63;;;16.60;83.86
63019;BME280;49105;46.046;10.760;2023-06-14T04:57:52;95220.34;;;16.63;83.34
63019;BME280;49105;46.046;10.760;2023-06-14T05:00:20;95213.00;;;16.52;83.15
63019;BME280;49105;46.046;10.760;2023-06-14T05:02:46;95216.47;;;16.44;83.51
63019;BME280;49105;46.046;10.760;2023-06-14T05:05:12;95212.69;;;16.45;83.47
63019;BME280;49105;46.046;10.760;2023-06-14T05:07:38;95210.34;;;16.43;83.14
63019;BME280;49105;46.046;10.760;2023-06-14T05:10:04;95211.78;;;16.41;83.07
63019;BME280;49105;46.046;10.760;2023-06-14T05:12:30;95211.00;;;16.40;83.07
63019;BME280;49105;46.046;10.760;2023-06-14T05:14:55;95213.06;;;16.34;83.05
63019;BME280;49105;46.046;10.760;2023-06-14T05:17:23;95209.28;;;16.35;83.20
63019;BME280;49105;46.046;10.760;2023-06-14T05:19:49;95208.63;;;16.47;83.31
63019;BME280;49105;46.046;10.760;2023-06-14T05:22:14;95215.78;;;16.64;82.98
63019;BME280;49105;46.046;10.760;2023-06-14T05:24:40;95220.50;;;16.67;82.42
63019;BME280;49105;46.046;10.760;2023-06-14T05:27:06;95215.97;;;16.59;82.30
63019;BME280;49105;46.046;10.760;2023-06-14T05:29:32;95216.78;;;16.51;82.56
63019;BME280;49105;46.046;10.760;2023-06-14T05:31:57;95219.59;;;16.54;82.40
63019;BME280;49105;46.046;10.760;2023-06-14T05:34:23;95213.44;;;16.54;82.64
63019;BME280;49105;46.046;10.760;2023-06-14T05:36:48;95214.88;;;16.51;82.64
63019;BME280;49105;46.046;10.760;2023-06-14T05:39:14;95217.56;;;16.51;82.82
63019;BME280;49105;46.046;10.760;2023-06-14T05:41:39;95225.72;;;16.55;82.72
63019;BME280;49105;46.046;10.760;2023-06-14T05:44:05;95221.31;;;16.59;82.79
63019;BME280;49105;46.046;10.760;2023-06-14T05:46:30;95216.88;;;16.63;82.30
63019;BME280;49105;46.046;10.760;2023-06-14T05:48:56;95222.72;;;16.56;82.55
63019;BME280;49105;46.046;10.760;2023-06-14T05:51:22;95222.81;;;16.69;82.66
63019;BME280;49105;46.046;10.760;2023-06-14T05:53:50;95225.78;;;16.84;82.58
63019;BME280;49105;46.046;10.760;2023-06-14T05:56:16;95218.78;;;17.01;82.50
63019;BME280;49105;46.046;10.760;2023-06-14T05:58:43;95224.84;;;17.10;82.39
63019;BME280;49105;46.046;10.760;2023-06-14T06:01:09;95231.91;;;17.15;82.09
63019;BME280;49105;46.046;10.760;2023-06-14T06:03:35;95228.44;;;17.14;82.18
63019;BME280;49105;46.046;10.760;2023-06-14T06:06:00;95235.34;;;17.15;82.14
63019;BME280;49105;46.046;10.760;2023-06-14T06:08:26;95231.59;;;17.16;81.81
63019;BME280;49105;46.046;10.760;2023-06-14T06:10:52;95218.53;;;17.15;82.06
63019;BME280;49105;46.046;10.760;2023-06-14T06:13:17;95233.50;;;17.07;81.60
63019;BME280;49105;46.046;10.760;2023-06-14T06:15:43;95233.25;;;17.00;81.89
63019;BME280;49105;46.046;10.760;2023-06-14T06:18:08;95233.13;;;16.96;81.86
63019;BME280;49105;46.046;10.760;2023-06-14T06:20:34;95236.22;;;16.98;81.90
63019;BME280;49105;46.046;10.760;2023-06-14T06:23:01;95237.00;;;16.99;81.55
63019;BME280;49105;46.046;10.760;2023-06-14T06:25:27;95239.25;;;16.97;81.72
63019;BME280;49105;46.046;10.760;2023-06-14T06:27:53;95238.59;;;17.00;81.62
63019;BME280;49105;46.046;10.760;2023-06-14T06:30:19;95241.72;;;17.02;81.46
63019;BME280;49105;46.046;10.760;2023-06-14T06:32:45;95240.94;;;17.01;81.16
63019;BME280;49105;46.046;10.760;2023-06-14T06:35:11;95243.28;;;17.03;81.38
63019;BME280;49105;46.046;10.760;2023-06-14T06:37:38;95243.75;;;17.05;81.25
63019;BME280;49105;46.046;10.760;2023-06-14T06:40:04;95248.91;;;17.10;81.05
63019;BME280;49105;46.046;10.760;2023-06-14T06:42:34;95242.19;;;17.04;80.62
63019;BME280;49105;46.046;10.760;2023-06-14T06:45:00;95251.25;;;17.11;81.01
63019;BME280;49105;46.046;10.760;2023-06-14T06:47:25;95253.00;;;17.16;80.77
63019;BME280;49105;46.046;10.760;2023-06-14T06:49:51;95251.53;;;17.19;80.77
63019;BME280;49105;46.046;10.760;2023-06-14T06:52:17;95257.66;;;17.19;80.37
63019;BME280;49105;46.046;10.760;2023-06-14T06:54:42;95250.44;;;17.20;80.21
63019;BME280;49105;46.046;10.760;2023-06-14T06:57:08;95258.91;;;17.22;80.12
63019;BME280;49105;46.046;10.760;2023-06-14T06:59:34;95260.19;;;17.24;80.15
63019;BME280;49105;46.046;10.760;2023-06-14T07:02:00;95247.38;;;17.30;80.33
63019;BME280;49105;46.046;10.760;2023-06-14T07:04:25;95260.72;;;17.39;79.97
63019;BME280;49105;46.046;10.760;2023-06-14T07:06:51;95256.75;;;17.45;79.75
63019;BME280;49105;46.046;10.760;2023-06-14T07:09:16;95251.97;;;17.50;79.73
63019;BME280;49105;46.046;10.760;2023-06-14T07:11:43;95254.53;;;17.68;79.64
63019;BME280;49105;46.046;10.760;2023-06-14T07:14:09;95254.75;;;17.83;79.79
63019;BME280;49105;46.046;10.760;2023-06-14T07:16:35;95251.13;;;18.00;79.36
63019;BME280;49105;46.046;10.760;2023-06-14T07:19:01;95254.44;;;18.18;79.14
63019;BME280;49105;46.046;10.760;2023-06-14T07:21:27;95252.47;;;18.27;79.00
63019;BME280;49105;46.046;10.760;2023-06-14T07:23:53;95255.16;;;18.27;78.93
63019;BME280;49105;46.046;10.760;2023-06-14T07:26:19;95255.59;;;18.29;78.75
63019;BME280;49105;46.046;10.760;2023-06-14T07:28:46;95249.44;;;18.29;78.17
63019;BME280;49105;46.046;10.760;2023-06-14T07:31:13;95263.19;;;18.27;78.52
63019;BME280;49105;46.046;10.760;2023-06-14T07:33:40;95257.81;;;18.27;78.10
63019;BME280;49105;46.046;10.760;2023-06-14T07:36:05;95255.47;;;18.26;78.36
63019;BME280;49105;46.046;10.760;2023-06-14T07:38:31;95261.59;;;18.26;78.01
63019;BME280;49105;46.046;10.760;2023-06-14T07:40:56;95252.56;;;18.31;77.83
63019;BME280;49105;46.046;10.760;2023-06-14T07:43:22;95263.28;;;18.31;77.35
63019;BME280;49105;46.046;10.760;2023-06-14T07:45:47;95256.84;;;18.32;77.05
63019;BME280;49105;46.046;10.760;2023-06-14T07:48:13;95253.47;;;18.35;77.46
63019;BME280;49105;46.046;10.760;2023-06-14T07:50:38;95258.28;;;18.42;76.88
63019;BME280;49105;46.046;10.760;2023-06-14T07:53:03;95266.13;;;18.47;76.76
63019;BME280;49105;46.046;10.760;2023-06-14T07:55:29;95263.69;;;18.54;76.03
63019;BME280;49105;46.046;10.760;2023-06-14T07:57:55;95259.28;;;18.70;76.20
63019;BME280;49105;46.046;10.760;2023-06-14T08:00:21;95261.44;;;18.89;76.01
63019;BME280;49105;46.046;10.760;2023-06-14T08:02:46;95262.53;;;19.00;75.37
63019;BME280;49105;46.046;10.760;2023-06-14T08:05:12;95271.94;;;19.06;75.47
63019;BME280;49105;46.046;10.760;2023-06-14T08:07:39;95262.53;;;19.13;75.24
63019;BME280;49105;46.046;10.760;2023-06-14T08:10:05;95256.84;;;19.14;74.99
63019;BME280;49105;46.046;10.760;2023-06-14T08:12:31;95267.59;;;19.14;75.07
63019;BME280;49105;46.046;10.760;2023-06-14T08:14:57;95254.81;;;19.23;75.37
63019;BME280;49105;46.046;10.760;2023-06-14T08:17:22;95259.53;;;19.26;75.35
63019;BME280;49105;46.046;10.760;2023-06-14T08:19:47;95261.50;;;19.29;75.43
63019;BME280;49105;46.046;10.760;2023-06-14T08:22:13;95255.25;;;19.38;75.36
63019;BME280;49105;46.046;10.760;2023-06-14T08:24:38;95261.72;;;19.49;75.39
63019;BME280;49105;46.046;10.760;2023-06-14T08:27:06;95261.94;;;19.56;74.68
63019;BME280;49105;46.046;10.760;2023-06-14T08:29:31;95261.28;;;19.47;73.98
63019;BME280;49105;46.046;10.760;2023-06-14T08:31:57;95257.91;;;19.50;73.75
63019;BME280;49105;46.046;10.760;2023-06-14T08:34:23;95259.81;;;19.62;73.76
63019;BME280;49105;46.046;10.760;2023-06-14T08:36:51;95257.31;;;19.81;73.55
63019;BME280;49105;46.046;10.760;2023-06-14T08:39:17;95252.69;;;19.94;73.36
63019;BME280;49105;46.046;10.760;2023-06-14T08:41:44;95251.91;;;19.93;72.47
63019;BME280;49105;46.046;10.760;2023-06-14T08:44:11;95254.69;;;19.97;72.84
63019;BME280;49105;46.046;10.760;2023-06-14T08:46:37;95246.19;;;19.95;72.35
63019;BME280;49105;46.046;10.760;2023-06-14T08:49:03;95242.63;;;19.91;72.14
63019;BME280;49105;46.046;10.760;2023-06-14T08:51:31;95238.72;;;19.88;72.29
63019;BME280;49105;46.046;10.760;2023-06-14T08:54:00;95237.06;;;19.83;72.48
63019;BME280;49105;46.046;10.760;2023-06-14T08:56:27;95240.19;;;19.86;72.60
63019;BME280;49105;46.046;10.760;2023-06-14T08:58:55;95251.81;;;19.90;72.06
63019;BME280;49105;46.046;10.760;2023-06-14T09:01:22;95241.31;;;19.85;71.93
63019;BME280;49105;46.046;10.760;2023-06-14T09:03:49;95245.13;;;19.83;72.28
63019;BME280;49105;46.046;10.760;2023-06-14T09:06:15;95244.59;;;19.66;71.63
63019;BME280;49105;46.046;10.760;2023-06-14T09:08:45;95242.38;;;19.55;71.30
63019;BME280;49105;46.046;10.760;2023-06-14T09:11:12;95243.84;;;19.41;70.87
63019;BME280;49105;46.046;10.760;2023-06-14T09:13:38;95234.69;;;19.29;71.01
63019;BME280;49105;46.046;10.760;2023-06-14T09:16:04;95230.66;;;19.36;71.69
63019;BME280;49105;46.046;10.760;2023-06-14T09:18:37;95238.56;;;19.56;71.56
63019;BME280;49105;46.046;10.760;2023-06-14T09:21:06;95232.94;;;19.74;71.25
63019;BME280;49105;46.046;10.760;2023-06-14T09:23:46;95240.81;;;19.95;70.96
63019;BME280;49105;46.046;10.760;2023-06-14T09:26:13;95235.25;;;20.16;70.72
63019;BME280;49105;46.046;10.760;2023-06-14T09:28:43;95228.03;;;20.04;68.32
63019;BME280;49105;46.046;10.760;2023-06-14T09:31:19;95229.81;;;20.12;69.21
63019;BME280;49105;46.046;10.760;2023-06-14T09:33:46;95226.78;;;20.29;68.90
63019;BME280;49105;46.046;10.760;2023-06-14T09:36:17;95225.81;;;20.22;67.72
63019;BME280;49105;46.046;10.760;2023-06-14T09:41:19;95223.56;;;20.24;66.49
63019;BME280;49105;46.046;10.760;2023-06-14T09:43:46;95231.28;;;20.25;66.37
63019;BME280;49105;46.046;10.760;2023-06-14T09:46:13;95231.38;;;20.45;66.85
63019;BME280;49105;46.046;10.760;2023-06-14T09:48:38;95228.94;;;20.68;67.42
63019;BME280;49105;46.046;10.760;2023-06-14T09:51:10;95232.84;;;20.70;67.24
63019;BME280;49105;46.046;10.760;2023-06-14T09:53:36;95224.94;;;20.77;67.49
63019;BME280;49105;46.046;10.760;2023-06-14T09:56:02;95221.81;;;20.91;67.62
63019;BME280;49105;46.046;10.760;2023-06-14T09:58:30;95216.94;;;20.97;66.88
63019;BME280;49105;46.046;10.760;2023-06-14T10:00:56;95217.81;;;21.01;66.39
63019;BME280;49105;46.046;10.760;2023-06-14T10:03:28;95220.69;;;21.08;66.84
63019;BME280;49105;46.046;10.760;2023-06-14T10:05:55;95210.59;;;21.21;67.08
63019;BME280;49105;46.046;10.760;2023-06-14T10:08:27;95218.91;;;21.31;66.96
63019;BME280;49105;46.046;10.760;2023-06-14T10:10:57;95207.88;;;21.37;67.01
63019;BME280;49105;46.046;10.760;2023-06-14T10:13:22;95207.53;;;21.38;66.94
63019;BME280;49105;46.046;10.760;2023-06-14T10:16:05;95198.84;;;21.45;67.25
63019;BME280;49105;46.046;10.760;2023-06-14T10:18:43;95204.78;;;21.54;67.18
63019;BME280;49105;46.046;10.760;2023-06-14T10:21:21;95194.28;;;21.68;66.78
63019;BME280;49105;46.046;10.760;2023-06-14T10:23:49;95191.34;;;21.73;66.87
63019;BME280;49105;46.046;10.760;2023-06-14T10:26:23;95188.06;;;21.84;66.99
63019;BME280;49105;46.046;10.760;2023-06-14T10:29:07;95189.44;;;21.93;66.46
63019;BME280;49105;46.046;10.760;2023-06-14T10:31:45;95191.81;;;21.98;66.41
63019;BME280;49105;46.046;10.760;2023-06-14T10:34:31;95179.59;;;22.04;65.76
63019;BME280;49105;46.046;10.760;2023-06-14T10:37:13;95175.94;;;22.13;65.94
63019;BME280;49105;46.046;10.760;2023-06-14T10:39:40;95166.72;;;22.14;65.59
63019;BME280;49105;46.046;10.760;2023-06-14T10:42:06;95169.13;;;22.19;65.33
63019;BME280;49105;46.046;10.760;2023-06-14T10:50:07;95165.28;;;22.20;63.05
63019;BME280;49105;46.046;10.760;2023-06-14T10:52:34;95163.97;;;22.33;63.49
63019;BME280;49105;46.046;10.760;2023-06-14T10:55:07;95157.50;;;22.38;63.66
63019;BME280;49105;46.046;10.760;2023-06-14T10:57:52;95155.66;;;22.42;62.81
63019;BME280;49105;46.046;10.760;2023-06-14T11:00:27;95153.44;;;22.47;62.13
63019;BME280;49105;46.046;10.760;2023-06-14T11:05:53;95150.56;;;22.60;62.02
63019;BME280;49105;46.046;10.760;2023-06-14T11:10:55;95153.00;;;22.68;62.49
63019;BME280;49105;46.046;10.760;2023-06-14T11:13:24;95147.31;;;22.73;61.84
63019;BME280;49105;46.046;10.760;2023-06-14T11:15:50;95135.78;;;22.76;60.13
63019;BME280;49105;46.046;10.760;2023-06-14T11:18:18;95131.56;;;22.79;60.29
63019;BME280;49105;46.046;10.760;2023-06-14T11:20:46;95130.53;;;22.87;60.35
63019;BME280;49105;46.046;10.760;2023-06-14T11:23:12;95128.34;;;22.93;60.10
63019;BME280;49105;46.046;10.760;2023-06-14T11:25:37;95134.25;;;23.02;60.34
63019;BME280;49105;46.046;10.760;2023-06-14T11:28:03;95125.13;;;23.10;60.89
63019;BME280;49105;46.046;10.760;2023-06-14T11:30:28;95127.50;;;23.15;60.99
63019;BME280;49105;46.046;10.760;2023-06-14T11:32:54;95131.00;;;23.19;60.93
63019;BME280;49105;46.046;10.760;2023-06-14T11:35:24;95130.69;;;23.24;61.26
63019;BME280;49105;46.046;10.760;2023-06-14T11:37:56;95126.03;;;23.21;59.48
63019;BME280;49105;46.046;10.760;2023-06-14T11:40:26;95124.06;;;23.18;59.03
63019;BME280;49105;46.046;10.760;2023-06-14T11:43:00;95111.66;;;23.14;58.35
63019;BME280;49105;46.046;10.760;2023-06-14T11:45:26;95105.84;;;23.12;57.46
63019;BME280;49105;46.046;10.760;2023-06-14T11:47:54;95108.28;;;23.20;58.26
63019;BME280;49105;46.046;10.760;2023-06-14T11:50:19;95095.28;;;23.30;57.67
63019;BME280;49105;46.046;10.760;2023-06-14T11:52:52;95099.94;;;23.33;57.37
63019;BME280;49105;46.046;10.760;2023-06-14T11:55:18;95093.81;;;23.36;57.76
63019;BME280;49105;46.046;10.760;2023-06-14T11:57:43;95099.69;;;23.45;58.32
63019;BME280;49105;46.046;10.760;2023-06-14T12:00:12;95090.53;;;23.49;58.39
63019;BME280;49105;46.046;10.760;2023-06-14T12:02:38;95085.56;;;23.55;57.01
63019;BME280;49105;46.046;10.760;2023-06-14T12:05:06;95090.13;;;23.51;55.97
63019;BME280;49105;46.046;10.760;2023-06-14T12:07:38;95078.84;;;23.42;54.79
63019;BME280;49105;46.046;10.760;2023-06-14T12:10:06;95076.63;;;23.51;55.64
63019;BME280;49105;46.046;10.760;2023-06-14T12:12:38;95078.69;;;23.65;55.06
63019;BME280;49105;46.046;10.760;2023-06-14T12:15:05;95074.63;;;23.78;54.63
63019;BME280;49105;46.046;10.760;2023-06-14T12:17:35;95075.69;;;23.70;53.56
63019;BME280;49105;46.046;10.760;2023-06-14T12:20:14;95063.38;;;23.72;54.38
63019;BME280;49105;46.046;10.760;2023-06-14T12:23:07;95074.69;;;23.85;54.81
63019;BME280;49105;46.046;10.760;2023-06-14T12:25:34;95065.53;;;23.97;54.10
63019;BME280;49105;46.046;10.760;2023-06-14T12:28:10;95064.00;;;23.96;52.83
63019;BME280;49105;46.046;10.760;2023-06-14T12:30:37;95063.66;;;24.01;52.57
63019;BME280;49105;46.046;10.760;2023-06-14T12:33:03;95072.53;;;24.01;52.46
63019;BME280;49105;46.046;10.760;2023-06-14T12:35:29;95057.16;;;24.09;52.71
63019;BME280;49105;46.046;10.760;2023-06-14T12:37:54;95056.88;;;24.21;51.81
63019;BME280;49105;46.046;10.760;2023-06-14T12:40:20;95066.84;;;24.14;51.47
63019;BME280;49105;46.046;10.760;2023-06-14T12:42:46;95065.63;;;24.04;50.30
63019;BME280;49105;46.046;10.760;2023-06-14T12:45:15;95072.13;;;23.96;51.12
63019;BME280;49105;46.046;10.760;2023-06-14T12:47:41;95057.72;;;23.85;51.27
63019;BME280;49105;46.046;10.760;2023-06-14T12:50:07;95065.03;;;23.84;51.98
63019;BME280;49105;46.046;10.760;2023-06-14T12:52:33;95059.22;;;23.79;52.11
63019;BME280;49105;46.046;10.760;2023-06-14T12:55:04;95056.97;;;23.88;51.90
63019;BME280;49105;46.046;10.760;2023-06-14T12:57:30;95057.38;;;23.90;51.53
63019;BME280;49105;46.046;10.760;2023-06-14T12:59:55;95050.44;;;23.92;50.75
63019;BME280;49105;46.046;10.760;2023-06-14T13:02:21;95055.94;;;23.99;51.28
63019;BME280;49105;46.046;10.760;2023-06-14T13:04:50;95047.97;;;24.17;51.65
63019;BME280;49105;46.046;10.760;2023-06-14T13:07:15;95043.47;;;24.36;51.89